PAFE

Details ICAO PAFE (AFE)
Name KAKE
Region USA (Alaska)
Timezone America/Juneau (UTC-8.0)
Plans Departing 14
Arriving 18
Stats Elevation 172 ft / 52 m (AMSL)
Location 56.961362° -133.910261°
Runways 1
Magnetic Variation 18.732° E
Sunrise 2018-05-24 12:22:39 UTC / 2018-05-24 04:22:39 Local
Sunset 2018-05-25 05:25:15 UTC / 2018-05-24 21:25:15 Local
Advertisement - Login to hide

Runways

ID Width Length Bearing (true) Bearing (mag) Surface Threshold Offset Overrun Length
10 100 ft / 30 m 3,990 ft / 1,216 m 129.93° 111.20° Asphalt 0 ft / 0 m 295 ft / 90 m
28 100 ft / 30 m 3,990 ft / 1,216 m 309.94° 291.21° Asphalt 1,000 ft / 305 m 295 ft / 90 m

Map

Weather


0- 5 10 15 20 25 30 35+ Temperature / ° C

Clouds and Precipitation
Forecast for 2018-05-25 00:00 UTC. Updated 4 hours ago

Ground ~20,000 ft ~40,000 ft Winds

METAR

PAFE 250256Z AUTO 11006KT 10SM -RA BKN040 OVC047 09/07 A3001 RMK AO2 RAB29 SLP176 P0000 60000 T00890067 58004 $

TAF

Not found

Frequencies

Recorded 135.25 MHz AWOS 3
Unicom 122.90 MHz CTAF
Warning: Do not use this data for real-world aviation or navigation. No guarantee of current accuracy is given.